sensor_id;sensor_type;location;lat;lon;timestamp;P1;durP1;ratioP1;P2;durP2;ratioP2
9260;SDS011;4667;42.726;23.252;2023-12-04T00:06:04;10.10;;;7.90;;
9260;SDS011;4667;42.726;23.252;2023-12-04T00:08:32;14.17;;;8.57;;
9260;SDS011;4667;42.726;23.252;2023-12-04T00:10:59;11.07;;;8.53;;
9260;SDS011;4667;42.726;23.252;2023-12-04T00:13:26;10.63;;;8.20;;
9260;SDS011;4667;42.726;23.252;2023-12-04T00:15:53;10.03;;;7.90;;
9260;SDS011;4667;42.726;23.252;2023-12-04T00:18:20;10.80;;;8.27;;
9260;SDS011;4667;42.726;23.252;2023-12-04T00:20:47;9.97;;;7.80;;
9260;SDS011;4667;42.726;23.252;2023-12-04T00:23:15;11.03;;;7.93;;
9260;SDS011;4667;42.726;23.252;2023-12-04T00:30:54;12.53;;;8.57;;
9260;SDS011;4667;42.726;23.252;2023-12-04T00:33:28;11.53;;;8.07;;
9260;SDS011;4667;42.726;23.252;2023-12-04T00:35:56;10.33;;;7.93;;
9260;SDS011;4667;42.726;23.252;2023-12-04T00:43:35;11.97;;;8.57;;
9260;SDS011;4667;42.726;23.252;2023-12-04T01:01:34;11.83;;;8.47;;
9260;SDS011;4667;42.726;23.252;2023-12-04T01:11:41;13.40;;;9.03;;
9260;SDS011;4667;42.726;23.252;2023-12-04T01:14:08;10.07;;;8.33;;
9260;SDS011;4667;42.726;23.252;2023-12-04T01:26:49;10.93;;;8.30;;
9260;SDS011;4667;42.726;23.252;2023-12-04T01:29:16;10.13;;;7.70;;
9260;SDS011;4667;42.726;23.252;2023-12-04T01:31:44;13.23;;;7.80;;
9260;SDS011;4667;42.726;23.252;2023-12-04T01:34:11;10.70;;;8.60;;
9260;SDS011;4667;42.726;23.252;2023-12-04T01:36:39;10.20;;;8.33;;
9260;SDS011;4667;42.726;23.252;2023-12-04T01:39:06;10.90;;;8.20;;
9260;SDS011;4667;42.726;23.252;2023-12-04T01:41:33;10.90;;;7.97;;
9260;SDS011;4667;42.726;23.252;2023-12-04T01:44:02;10.80;;;8.60;;
9260;SDS011;4667;42.726;23.252;2023-12-04T01:46:29;10.50;;;7.53;;
9260;SDS011;4667;42.726;23.252;2023-12-04T01:48:56;9.83;;;8.07;;
9260;SDS011;4667;42.726;23.252;2023-12-04T01:56:33;11.00;;;8.43;;
9260;SDS011;4667;42.726;23.252;2023-12-04T01:59:03;11.40;;;8.53;;
9260;SDS011;4667;42.726;23.252;2023-12-04T02:01:30;12.20;;;8.43;;
9260;SDS011;4667;42.726;23.252;2023-12-04T02:03:58;10.60;;;7.70;;
9260;SDS011;4667;42.726;23.252;2023-12-04T02:06:27;10.03;;;7.53;;
9260;SDS011;4667;42.726;23.252;2023-12-04T02:08:54;10.37;;;7.53;;
9260;SDS011;4667;42.726;23.252;2023-12-04T02:11:22;10.67;;;7.20;;
9260;SDS011;4667;42.726;23.252;2023-12-04T02:13:49;11.77;;;7.73;;
9260;SDS011;4667;42.726;23.252;2023-12-04T02:16:18;10.83;;;7.23;;
9260;SDS011;4667;42.726;23.252;2023-12-04T02:18:50;9.77;;;7.77;;
9260;SDS011;4667;42.726;23.252;2023-12-04T02:21:17;9.40;;;7.50;;
9260;SDS011;4667;42.726;23.252;2023-12-04T02:23:48;10.93;;;7.23;;
9260;SDS011;4667;42.726;23.252;2023-12-04T02:26:17;8.27;;;7.00;;
9260;SDS011;4667;42.726;23.252;2023-12-04T02:28:49;9.20;;;7.00;;
9260;SDS011;4667;42.726;23.252;2023-12-04T02:31:20;12.87;;;7.70;;
9260;SDS011;4667;42.726;23.252;2023-12-04T02:33:50;10.30;;;8.17;;
9260;SDS011;4667;42.726;23.252;2023-12-04T02:36:19;8.87;;;7.40;;
9260;SDS011;4667;42.726;23.252;2023-12-04T02:38:48;10.27;;;7.10;;
9260;SDS011;4667;42.726;23.252;2023-12-04T02:41:16;11.27;;;7.80;;
9260;SDS011;4667;42.726;23.252;2023-12-04T02:43:43;12.33;;;7.70;;
9260;SDS011;4667;42.726;23.252;2023-12-04T02:46:10;9.93;;;7.43;;
9260;SDS011;4667;42.726;23.252;2023-12-04T02:48:37;9.60;;;7.93;;
9260;SDS011;4667;42.726;23.252;2023-12-04T02:51:04;11.00;;;7.63;;
9260;SDS011;4667;42.726;23.252;2023-12-04T02:53:32;9.87;;;7.67;;
9260;SDS011;4667;42.726;23.252;2023-12-04T02:56:00;12.97;;;8.57;;
9260;SDS011;4667;42.726;23.252;2023-12-04T02:58:27;8.80;;;7.37;;
9260;SDS011;4667;42.726;23.252;2023-12-04T03:00:54;10.97;;;7.87;;
9260;SDS011;4667;42.726;23.252;2023-12-04T03:03:22;10.80;;;8.10;;
9260;SDS011;4667;42.726;23.252;2023-12-04T03:08:25;10.83;;;7.87;;
9260;SDS011;4667;42.726;23.252;2023-12-04T03:13:28;11.60;;;8.20;;
9260;SDS011;4667;42.726;23.252;2023-12-04T03:15:55;11.63;;;8.40;;
9260;SDS011;4667;42.726;23.252;2023-12-04T03:18:22;11.60;;;8.10;;
9260;SDS011;4667;42.726;23.252;2023-12-04T03:20:50;9.60;;;7.80;;
9260;SDS011;4667;42.726;23.252;2023-12-04T03:23:17;9.83;;;7.30;;
9260;SDS011;4667;42.726;23.252;2023-12-04T03:25:44;11.47;;;7.90;;
9260;SDS011;4667;42.726;23.252;2023-12-04T03:28:11;7.97;;;7.03;;
9260;SDS011;4667;42.726;23.252;2023-12-04T03:38:28;10.40;;;7.40;;
9260;SDS011;4667;42.726;23.252;2023-12-04T03:40:55;11.80;;;7.93;;
9260;SDS011;4667;42.726;23.252;2023-12-04T03:43:22;10.20;;;7.13;;
9260;SDS011;4667;42.726;23.252;2023-12-04T03:45:49;8.17;;;6.87;;
9260;SDS011;4667;42.726;23.252;2023-12-04T03:48:18;9.97;;;7.60;;
9260;SDS011;4667;42.726;23.252;2023-12-04T03:50:57;10.07;;;7.80;;
9260;SDS011;4667;42.726;23.252;2023-12-04T03:53:26;9.33;;;7.60;;
9260;SDS011;4667;42.726;23.252;2023-12-04T03:55:57;10.40;;;7.40;;
9260;SDS011;4667;42.726;23.252;2023-12-04T03:58:25;9.40;;;7.43;;
9260;SDS011;4667;42.726;23.252;2023-12-04T04:00:53;9.30;;;7.03;;
9260;SDS011;4667;42.726;23.252;2023-12-04T04:03:20;8.47;;;7.13;;
9260;SDS011;4667;42.726;23.252;2023-12-04T04:05:49;11.03;;;8.23;;
9260;SDS011;4667;42.726;23.252;2023-12-04T04:08:16;11.77;;;8.30;;
9260;SDS011;4667;42.726;23.252;2023-12-04T04:10:45;9.30;;;6.80;;
9260;SDS011;4667;42.726;23.252;2023-12-04T04:13:12;10.60;;;7.60;;
9260;SDS011;4667;42.726;23.252;2023-12-04T04:15:40;12.70;;;8.87;;
9260;SDS011;4667;42.726;23.252;2023-12-04T04:18:07;10.67;;;8.03;;
9260;SDS011;4667;42.726;23.252;2023-12-04T04:20:34;13.43;;;8.80;;
9260;SDS011;4667;42.726;23.252;2023-12-04T04:23:02;9.87;;;8.23;;
9260;SDS011;4667;42.726;23.252;2023-12-04T04:25:29;14.07;;;9.03;;
9260;SDS011;4667;42.726;23.252;2023-12-04T04:27:57;12.13;;;8.03;;
9260;SDS011;4667;42.726;23.252;2023-12-04T04:30:24;12.90;;;8.33;;
9260;SDS011;4667;42.726;23.252;2023-12-04T04:32:52;11.07;;;7.37;;
9260;SDS011;4667;42.726;23.252;2023-12-04T04:35:19;10.00;;;8.27;;
9260;SDS011;4667;42.726;23.252;2023-12-04T04:37:46;9.90;;;7.87;;
9260;SDS011;4667;42.726;23.252;2023-12-04T04:40:14;10.93;;;7.90;;
9260;SDS011;4667;42.726;23.252;2023-12-04T04:42:41;10.37;;;7.70;;
9260;SDS011;4667;42.726;23.252;2023-12-04T04:45:10;9.67;;;7.53;;
9260;SDS011;4667;42.726;23.252;2023-12-04T04:47:37;9.90;;;7.50;;
9260;SDS011;4667;42.726;23.252;2023-12-04T04:50:04;11.60;;;8.57;;
9260;SDS011;4667;42.726;23.252;2023-12-04T04:52:32;11.00;;;7.87;;
9260;SDS011;4667;42.726;23.252;2023-12-04T04:54:59;12.97;;;8.30;;
9260;SDS011;4667;42.726;23.252;2023-12-04T04:57:26;12.67;;;7.93;;
9260;SDS011;4667;42.726;23.252;2023-12-04T04:59:53;11.93;;;8.13;;
9260;SDS011;4667;42.726;23.252;2023-12-04T05:02:22;12.83;;;8.47;;
9260;SDS011;4667;42.726;23.252;2023-12-04T05:04:50;10.27;;;7.73;;
9260;SDS011;4667;42.726;23.252;2023-12-04T05:07:17;9.60;;;7.23;;
9260;SDS011;4667;42.726;23.252;2023-12-04T05:09:44;12.97;;;8.47;;
9260;SDS011;4667;42.726;23.252;2023-12-04T05:12:11;9.47;;;7.00;;
9260;SDS011;4667;42.726;23.252;2023-12-04T05:14:38;9.43;;;7.80;;
9260;SDS011;4667;42.726;23.252;2023-12-04T05:17:05;11.80;;;7.97;;
9260;SDS011;4667;42.726;23.252;2023-12-04T05:19:36;9.97;;;7.30;;
9260;SDS011;4667;42.726;23.252;2023-12-04T05:22:03;11.87;;;8.47;;
9260;SDS011;4667;42.726;23.252;2023-12-04T05:24:30;10.07;;;7.90;;
9260;SDS011;4667;42.726;23.252;2023-12-04T05:27:00;11.87;;;8.30;;
9260;SDS011;4667;42.726;23.252;2023-12-04T05:29:28;12.47;;;8.03;;
9260;SDS011;4667;42.726;23.252;2023-12-04T05:31:58;11.67;;;8.03;;
9260;SDS011;4667;42.726;23.252;2023-12-04T05:34:25;10.80;;;7.97;;
9260;SDS011;4667;42.726;23.252;2023-12-04T05:36:54;11.87;;;7.27;;
9260;SDS011;4667;42.726;23.252;2023-12-04T05:39:26;10.73;;;7.90;;
9260;SDS011;4667;42.726;23.252;2023-12-04T05:42:24;11.40;;;8.13;;
9260;SDS011;4667;42.726;23.252;2023-12-04T06:11:05;10.37;;;8.10;;
9260;SDS011;4667;42.726;23.252;2023-12-04T06:13:33;10.37;;;7.67;;
9260;SDS011;4667;42.726;23.252;2023-12-04T06:16:03;14.60;;;8.23;;
9260;SDS011;4667;42.726;23.252;2023-12-04T06:18:32;17.93;;;8.60;;
9260;SDS011;4667;42.726;23.252;2023-12-04T06:20:59;13.03;;;9.17;;
9260;SDS011;4667;42.726;23.252;2023-12-04T06:23:26;12.33;;;8.20;;
9260;SDS011;4667;42.726;23.252;2023-12-04T06:25:54;10.97;;;8.00;;
9260;SDS011;4667;42.726;23.252;2023-12-04T06:28:23;11.33;;;7.40;;
9260;SDS011;4667;42.726;23.252;2023-12-04T06:30:51;8.93;;;7.33;;
9260;SDS011;4667;42.726;23.252;2023-12-04T06:33:19;11.73;;;7.43;;
9260;SDS011;4667;42.726;23.252;2023-12-04T06:35:56;11.60;;;7.33;;
9260;SDS011;4667;42.726;23.252;2023-12-04T06:38:24;13.27;;;8.20;;
9260;SDS011;4667;42.726;23.252;2023-12-04T06:51:14;9.77;;;6.83;;
9260;SDS011;4667;42.726;23.252;2023-12-04T06:53:41;11.20;;;7.30;;
9260;SDS011;4667;42.726;23.252;2023-12-04T07:01:13;8.87;;;7.83;;
9260;SDS011;4667;42.726;23.252;2023-12-04T07:03:41;9.13;;;6.93;;
9260;SDS011;4667;42.726;23.252;2023-12-04T07:13:54;9.73;;;7.10;;
9260;SDS011;4667;42.726;23.252;2023-12-04T07:16:21;13.50;;;8.03;;
9260;SDS011;4667;42.726;23.252;2023-12-04T07:18:48;10.23;;;7.40;;
9260;SDS011;4667;42.726;23.252;2023-12-04T07:21:14;9.57;;;7.20;;
9260;SDS011;4667;42.726;23.252;2023-12-04T07:23:41;9.97;;;7.60;;
9260;SDS011;4667;42.726;23.252;2023-12-04T07:26:08;9.73;;;7.47;;
9260;SDS011;4667;42.726;23.252;2023-12-04T07:31:12;8.27;;;6.97;;
9260;SDS011;4667;42.726;23.252;2023-12-04T07:36:15;9.07;;;7.07;;
9260;SDS011;4667;42.726;23.252;2023-12-04T07:38:42;10.13;;;6.27;;
9260;SDS011;4667;42.726;23.252;2023-12-04T07:44:23;11.87;;;6.77;;
9260;SDS011;4667;42.726;23.252;2023-12-04T07:46:55;8.00;;;6.20;;
9260;SDS011;4667;42.726;23.252;2023-12-04T07:49:23;9.33;;;7.47;;
9260;SDS011;4667;42.726;23.252;2023-12-04T07:51:50;8.53;;;6.57;;
9260;SDS011;4667;42.726;23.252;2023-12-04T07:54:17;9.53;;;6.37;;
9260;SDS011;4667;42.726;23.252;2023-12-04T07:56:44;8.90;;;7.13;;
9260;SDS011;4667;42.726;23.252;2023-12-04T07:59:11;9.67;;;6.50;;
9260;SDS011;4667;42.726;23.252;2023-12-04T08:01:39;7.50;;;5.80;;
9260;SDS011;4667;42.726;23.252;2023-12-04T08:04:08;7.10;;;5.13;;
9260;SDS011;4667;42.726;23.252;2023-12-04T08:06:36;8.23;;;6.03;;
9260;SDS011;4667;42.726;23.252;2023-12-04T08:09:03;7.47;;;5.60;;
9260;SDS011;4667;42.726;23.252;2023-12-04T08:11:34;7.10;;;6.13;;
9260;SDS011;4667;42.726;23.252;2023-12-04T08:14:01;10.40;;;6.40;;
9260;SDS011;4667;42.726;23.252;2023-12-04T08:16:28;7.43;;;6.23;;
9260;SDS011;4667;42.726;23.252;2023-12-04T08:18:55;7.50;;;5.93;;
9260;SDS011;4667;42.726;23.252;2023-12-04T08:21:23;13.33;;;5.87;;
9260;SDS011;4667;42.726;23.252;2023-12-04T08:23:50;7.63;;;6.00;;
9260;SDS011;4667;42.726;23.252;2023-12-04T08:26:20;9.07;;;6.80;;
9260;SDS011;4667;42.726;23.252;2023-12-04T08:28:48;7.60;;;5.93;;
9260;SDS011;4667;42.726;23.252;2023-12-04T08:31:15;6.37;;;5.50;;
9260;SDS011;4667;42.726;23.252;2023-12-04T08:33:43;8.17;;;5.73;;
9260;SDS011;4667;42.726;23.252;2023-12-04T08:36:10;7.17;;;6.10;;
9260;SDS011;4667;42.726;23.252;2023-12-04T08:38:39;7.90;;;6.17;;
9260;SDS011;4667;42.726;23.252;2023-12-04T08:41:07;7.57;;;6.30;;
9260;SDS011;4667;42.726;23.252;2023-12-04T08:43:34;6.90;;;6.20;;
9260;SDS011;4667;42.726;23.252;2023-12-04T08:46:01;7.30;;;6.13;;
9260;SDS011;4667;42.726;23.252;2023-12-04T08:48:28;7.90;;;5.70;;
9260;SDS011;4667;42.726;23.252;2023-12-04T08:50:56;6.37;;;5.70;;
9260;SDS011;4667;42.726;23.252;2023-12-04T08:53:23;10.63;;;6.07;;
9260;SDS011;4667;42.726;23.252;2023-12-04T08:55:52;8.13;;;5.20;;
9260;SDS011;4667;42.726;23.252;2023-12-04T08:58:19;7.73;;;4.90;;
9260;SDS011;4667;42.726;23.252;2023-12-04T09:00:46;8.97;;;5.80;;
9260;SDS011;4667;42.726;23.252;2023-12-04T09:03:13;5.67;;;4.97;;
9260;SDS011;4667;42.726;23.252;2023-12-04T09:05:41;7.00;;;5.17;;
9260;SDS011;4667;42.726;23.252;2023-12-04T09:08:09;6.40;;;4.57;;
9260;SDS011;4667;42.726;23.252;2023-12-04T09:10:36;5.73;;;4.83;;
9260;SDS011;4667;42.726;23.252;2023-12-04T09:13:05;8.43;;;4.77;;
9260;SDS011;4667;42.726;23.252;2023-12-04T09:15:32;5.00;;;4.10;;
9260;SDS011;4667;42.726;23.252;2023-12-04T09:17:59;6.00;;;4.93;;
9260;SDS011;4667;42.726;23.252;2023-12-04T09:20:26;5.93;;;4.60;;
9260;SDS011;4667;42.726;23.252;2023-12-04T09:22:53;4.57;;;4.13;;
9260;SDS011;4667;42.726;23.252;2023-12-04T09:25:20;5.77;;;4.70;;
9260;SDS011;4667;42.726;23.252;2023-12-04T09:27:47;6.60;;;4.60;;
9260;SDS011;4667;42.726;23.252;2023-12-04T09:30:16;5.57;;;4.27;;
9260;SDS011;4667;42.726;23.252;2023-12-04T09:32:43;5.33;;;4.60;;
9260;SDS011;4667;42.726;23.252;2023-12-04T09:35:10;4.73;;;3.93;;
9260;SDS011;4667;42.726;23.252;2023-12-04T09:37:39;5.10;;;4.43;;
9260;SDS011;4667;42.726;23.252;2023-12-04T09:40:07;5.27;;;4.33;;
9260;SDS011;4667;42.726;23.252;2023-12-04T09:42:34;5.40;;;4.27;;
9260;SDS011;4667;42.726;23.252;2023-12-04T09:45:02;7.23;;;4.73;;
9260;SDS011;4667;42.726;23.252;2023-12-04T09:47:32;6.40;;;4.60;;
9260;SDS011;4667;42.726;23.252;2023-12-04T09:50:00;6.10;;;4.33;;
9260;SDS011;4667;42.726;23.252;2023-12-04T09:52:27;5.23;;;4.27;;
9260;SDS011;4667;42.726;23.252;2023-12-04T09:54:55;5.20;;;4.70;;
9260;SDS011;4667;42.726;23.252;2023-12-04T09:57:22;5.67;;;4.73;;
9260;SDS011;4667;42.726;23.252;2023-12-04T09:59:50;5.37;;;4.17;;
9260;SDS011;4667;42.726;23.252;2023-12-04T10:02:17;6.37;;;5.73;;
9260;SDS011;4667;42.726;23.252;2023-12-04T10:04:48;4.93;;;4.43;;
9260;SDS011;4667;42.726;23.252;2023-12-04T10:07:15;5.53;;;4.47;;
9260;SDS011;4667;42.726;23.252;2023-12-04T10:09:42;5.50;;;5.00;;
9260;SDS011;4667;42.726;23.252;2023-12-04T10:12:09;6.37;;;4.60;;
9260;SDS011;4667;42.726;23.252;2023-12-04T10:14:37;5.80;;;4.63;;
9260;SDS011;4667;42.726;23.252;2023-12-04T10:17:13;6.10;;;4.23;;
9260;SDS011;4667;42.726;23.252;2023-12-04T10:19:43;5.13;;;4.20;;
9260;SDS011;4667;42.726;23.252;2023-12-04T10:22:11;7.70;;;4.63;;
9260;SDS011;4667;42.726;23.252;2023-12-04T10:24:39;4.17;;;3.77;;
9260;SDS011;4667;42.726;23.252;2023-12-04T10:27:06;5.23;;;4.60;;
9260;SDS011;4667;42.726;23.252;2023-12-04T10:29:41;6.13;;;4.27;;
9260;SDS011;4667;42.726;23.252;2023-12-04T10:32:09;5.37;;;4.70;;
9260;SDS011;4667;42.726;23.252;2023-12-04T10:34:36;6.63;;;4.57;;
9260;SDS011;4667;42.726;23.252;2023-12-04T10:37:04;6.53;;;4.57;;
9260;SDS011;4667;42.726;23.252;2023-12-04T10:39:35;7.00;;;4.53;;
9260;SDS011;4667;42.726;23.252;2023-12-04T10:42:22;5.77;;;4.43;;
9260;SDS011;4667;42.726;23.252;2023-12-04T10:44:51;8.00;;;4.20;;
9260;SDS011;4667;42.726;23.252;2023-12-04T10:47:19;11.53;;;4.80;;
9260;SDS011;4667;42.726;23.252;2023-12-04T10:49:48;6.20;;;4.27;;
9260;SDS011;4667;42.726;23.252;2023-12-04T10:52:21;6.67;;;4.70;;
9260;SDS011;4667;42.726;23.252;2023-12-04T10:54:50;4.80;;;4.30;;
9260;SDS011;4667;42.726;23.252;2023-12-04T10:57:20;5.30;;;4.03;;
9260;SDS011;4667;42.726;23.252;2023-12-04T10:59:52;5.33;;;4.50;;
9260;SDS011;4667;42.726;23.252;2023-12-04T11:02:25;6.57;;;4.67;;
9260;SDS011;4667;42.726;23.252;2023-12-04T11:04:54;5.57;;;4.40;;
9260;SDS011;4667;42.726;23.252;2023-12-04T11:07:25;5.83;;;4.40;;
9260;SDS011;4667;42.726;23.252;2023-12-04T11:09:55;5.70;;;4.40;;
9260;SDS011;4667;42.726;23.252;2023-12-04T11:12:26;8.87;;;4.93;;
9260;SDS011;4667;42.726;23.252;2023-12-04T11:14:56;7.77;;;5.40;;
9260;SDS011;4667;42.726;23.252;2023-12-04T11:17:30;6.50;;;4.70;;
9260;SDS011;4667;42.726;23.252;2023-12-04T11:20:02;5.73;;;4.47;;
9260;SDS011;4667;42.726;23.252;2023-12-04T11:22:35;8.13;;;4.80;;
9260;SDS011;4667;42.726;23.252;2023-12-04T11:25:07;4.73;;;4.00;;
9260;SDS011;4667;42.726;23.252;2023-12-04T11:27:36;5.57;;;4.37;;
9260;SDS011;4667;42.726;23.252;2023-12-04T11:30:04;4.93;;;4.27;;
9260;SDS011;4667;42.726;23.252;2023-12-04T11:32:37;7.47;;;4.40;;
9260;SDS011;4667;42.726;23.252;2023-12-04T11:35:12;4.87;;;4.20;;
9260;SDS011;4667;42.726;23.252;2023-12-04T11:37:40;5.90;;;4.57;;
9260;SDS011;4667;42.726;23.252;2023-12-04T11:40:12;7.47;;;5.30;;
9260;SDS011;4667;42.726;23.252;2023-12-04T11:42:41;7.17;;;4.90;;
9260;SDS011;4667;42.726;23.252;2023-12-04T11:45:09;5.53;;;4.37;;
9260;SDS011;4667;42.726;23.252;2023-12-04T11:48:09;8.43;;;4.57;;
9260;SDS011;4667;42.726;23.252;2023-12-04T11:50:50;5.90;;;4.97;;
9260;SDS011;4667;42.726;23.252;2023-12-04T11:56:12;8.33;;;5.20;;
9260;SDS011;4667;42.726;23.252;2023-12-04T11:58:53;5.57;;;4.50;;
9260;SDS011;4667;42.726;23.252;2023-12-04T12:01:43;6.17;;;4.50;;
9260;SDS011;4667;42.726;23.252;2023-12-04T12:04:12;7.77;;;5.23;;
9260;SDS011;4667;42.726;23.252;2023-12-04T12:06:56;8.07;;;5.00;;
9260;SDS011;4667;42.726;23.252;2023-12-04T12:09:27;7.50;;;5.80;;
9260;SDS011;4667;42.726;23.252;2023-12-04T12:12:02;9.00;;;5.43;;
9260;SDS011;4667;42.726;23.252;2023-12-04T12:14:30;8.40;;;5.90;;
9260;SDS011;4667;42.726;23.252;2023-12-04T12:16:58;7.63;;;5.60;;
9260;SDS011;4667;42.726;23.252;2023-12-04T12:19:28;8.33;;;5.17;;
9260;SDS011;4667;42.726;23.252;2023-12-04T12:21:55;10.17;;;6.43;;
9260;SDS011;4667;42.726;23.252;2023-12-04T12:24:23;6.93;;;5.50;;
9260;SDS011;4667;42.726;23.252;2023-12-04T12:26:53;7.30;;;6.13;;
9260;SDS011;4667;42.726;23.252;2023-12-04T12:29:22;12.30;;;6.77;;
9260;SDS011;4667;42.726;23.252;2023-12-04T12:31:50;8.43;;;6.10;;
9260;SDS011;4667;42.726;23.252;2023-12-04T12:34:17;7.73;;;6.00;;
9260;SDS011;4667;42.726;23.252;2023-12-04T12:36:46;10.00;;;6.73;;
9260;SDS011;4667;42.726;23.252;2023-12-04T12:39:13;10.83;;;6.97;;
9260;SDS011;4667;42.726;23.252;2023-12-04T12:41:46;9.30;;;7.37;;
9260;SDS011;4667;42.726;23.252;2023-12-04T12:44:14;10.63;;;7.53;;
9260;SDS011;4667;42.726;23.252;2023-12-04T12:46:46;10.00;;;6.30;;
9260;SDS011;4667;42.726;23.252;2023-12-04T12:49:15;11.97;;;7.43;;
9260;SDS011;4667;42.726;23.252;2023-12-04T12:51:44;10.33;;;7.07;;
9260;SDS011;4667;42.726;23.252;2023-12-04T12:54:13;10.43;;;7.87;;
9260;SDS011;4667;42.726;23.252;2023-12-04T12:56:40;9.23;;;7.40;;
9260;SDS011;4667;42.726;23.252;2023-12-04T12:59:07;9.97;;;7.70;;
9260;SDS011;4667;42.726;23.252;2023-12-04T13:01:35;9.07;;;7.27;;
9260;SDS011;4667;42.726;23.252;2023-12-04T13:04:06;11.37;;;8.37;;
9260;SDS011;4667;42.726;23.252;2023-12-04T13:06:35;14.50;;;9.00;;
9260;SDS011;4667;42.726;23.252;2023-12-04T13:09:02;12.00;;;8.43;;
9260;SDS011;4667;42.726;23.252;2023-12-04T13:11:33;13.93;;;8.60;;
9260;SDS011;4667;42.726;23.252;2023-12-04T13:14:02;13.17;;;8.87;;
9260;SDS011;4667;42.726;23.252;2023-12-04T13:16:30;15.03;;;9.40;;
9260;SDS011;4667;42.726;23.252;2023-12-04T13:19:01;13.23;;;8.37;;
9260;SDS011;4667;42.726;23.252;2023-12-04T13:21:29;13.07;;;8.67;;
9260;SDS011;4667;42.726;23.252;2023-12-04T13:23:57;11.77;;;8.60;;
9260;SDS011;4667;42.726;23.252;2023-12-04T13:26:24;13.57;;;8.90;;
9260;SDS011;4667;42.726;23.252;2023-12-04T13:28:52;14.53;;;9.10;;
9260;SDS011;4667;42.726;23.252;2023-12-04T13:31:22;18.03;;;9.30;;
9260;SDS011;4667;42.726;23.252;2023-12-04T13:33:49;20.40;;;11.57;;
9260;SDS011;4667;42.726;23.252;2023-12-04T13:36:18;18.97;;;10.47;;
9260;SDS011;4667;42.726;23.252;2023-12-04T13:38:47;18.63;;;9.97;;
9260;SDS011;4667;42.726;23.252;2023-12-04T13:41:16;19.30;;;9.40;;
9260;SDS011;4667;42.726;23.252;2023-12-04T13:43:59;13.07;;;9.10;;
9260;SDS011;4667;42.726;23.252;2023-12-04T13:46:28;12.77;;;9.43;;
9260;SDS011;4667;42.726;23.252;2023-12-04T13:48:55;13.53;;;9.30;;
9260;SDS011;4667;42.726;23.252;2023-12-04T13:51:22;11.63;;;9.07;;
9260;SDS011;4667;42.726;23.252;2023-12-04T13:53:51;15.27;;;9.30;;
9260;SDS011;4667;42.726;23.252;2023-12-04T13:56:21;14.60;;;9.23;;
9260;SDS011;4667;42.726;23.252;2023-12-04T13:59:07;12.40;;;9.27;;
9260;SDS011;4667;42.726;23.252;2023-12-04T14:01:42;13.70;;;9.37;;
9260;SDS011;4667;42.726;23.252;2023-12-04T14:04:12;14.57;;;9.70;;
9260;SDS011;4667;42.726;23.252;2023-12-04T14:06:39;13.83;;;9.70;;
9260;SDS011;4667;42.726;23.252;2023-12-04T14:09:07;14.07;;;9.80;;
9260;SDS011;4667;42.726;23.252;2023-12-04T14:11:39;15.30;;;8.70;;
9260;SDS011;4667;42.726;23.252;2023-12-04T14:14:09;16.97;;;8.50;;
9260;SDS011;4667;42.726;23.252;2023-12-04T14:16:36;16.53;;;9.20;;
9260;SDS011;4667;42.726;23.252;2023-12-04T14:19:05;12.77;;;10.53;;
9260;SDS011;4667;42.726;23.252;2023-12-04T14:21:32;15.33;;;10.20;;
9260;SDS011;4667;42.726;23.252;2023-12-04T14:23:59;12.37;;;8.37;;
9260;SDS011;4667;42.726;23.252;2023-12-04T14:26:28;11.80;;;9.27;;
9260;SDS011;4667;42.726;23.252;2023-12-04T14:28:55;10.70;;;8.23;;
9260;SDS011;4667;42.726;23.252;2023-12-04T14:31:26;14.17;;;9.03;;
9260;SDS011;4667;42.726;23.252;2023-12-04T14:33:53;14.77;;;10.30;;
9260;SDS011;4667;42.726;23.252;2023-12-04T14:36:20;13.77;;;9.00;;
9260;SDS011;4667;42.726;23.252;2023-12-04T14:38:48;12.47;;;8.73;;
9260;SDS011;4667;42.726;23.252;2023-12-04T14:41:15;14.17;;;8.57;;
9260;SDS011;4667;42.726;23.252;2023-12-04T14:43:46;12.13;;;8.43;;
9260;SDS011;4667;42.726;23.252;2023-12-04T14:46:13;12.93;;;9.03;;
9260;SDS011;4667;42.726;23.252;2023-12-04T14:48:41;11.63;;;8.37;;
9260;SDS011;4667;42.726;23.252;2023-12-04T14:51:09;12.57;;;8.83;;
9260;SDS011;4667;42.726;23.252;2023-12-04T14:53:37;10.33;;;8.73;;
9260;SDS011;4667;42.726;23.252;2023-12-04T14:56:12;18.90;;;9.10;;
9260;SDS011;4667;42.726;23.252;2023-12-04T14:58:58;15.70;;;9.30;;
9260;SDS011;4667;42.726;23.252;2023-12-04T15:01:44;14.83;;;9.53;;
9260;SDS011;4667;42.726;23.252;2023-12-04T15:04:32;14.93;;;9.13;;
9260;SDS011;4667;42.726;23.252;2023-12-04T15:07:13;15.43;;;8.90;;
9260;SDS011;4667;42.726;23.252;2023-12-04T15:10:13;14.13;;;9.03;;
9260;SDS011;4667;42.726;23.252;2023-12-04T15:13:06;22.97;;;11.93;;
9260;SDS011;4667;42.726;23.252;2023-12-04T15:16:00;27.90;;;16.97;;
9260;SDS011;4667;42.726;23.252;2023-12-04T15:18:52;33.23;;;18.33;;
9260;SDS011;4667;42.726;23.252;2023-12-04T15:21:41;27.37;;;16.67;;
9260;SDS011;4667;42.726;23.252;2023-12-04T15:24:09;31.20;;;17.43;;
9260;SDS011;4667;42.726;23.252;2023-12-04T15:26:35;26.30;;;15.53;;
9260;SDS011;4667;42.726;23.252;2023-12-04T15:29:02;25.63;;;15.53;;
9260;SDS011;4667;42.726;23.252;2023-12-04T15:31:31;25.10;;;15.73;;
9260;SDS011;4667;42.726;23.252;2023-12-04T15:33:58;26.50;;;16.50;;
9260;SDS011;4667;42.726;23.252;2023-12-04T15:36:24;25.67;;;14.80;;
9260;SDS011;4667;42.726;23.252;2023-12-04T15:38:51;23.93;;;13.17;;
9260;SDS011;4667;42.726;23.252;2023-12-04T15:41:17;24.60;;;13.77;;
9260;SDS011;4667;42.726;23.252;2023-12-04T15:43:45;26.47;;;14.33;;
9260;SDS011;4667;42.726;23.252;2023-12-04T15:46:14;26.57;;;17.07;;
9260;SDS011;4667;42.726;23.252;2023-12-04T15:48:44;28.50;;;15.53;;
9260;SDS011;4667;42.726;23.252;2023-12-04T15:51:10;23.73;;;15.07;;
9260;SDS011;4667;42.726;23.252;2023-12-04T15:53:37;22.73;;;15.00;;
9260;SDS011;4667;42.726;23.252;2023-12-04T15:56:04;22.13;;;13.30;;
9260;SDS011;4667;42.726;23.252;2023-12-04T15:58:32;22.03;;;13.67;;
9260;SDS011;4667;42.726;23.252;2023-12-04T16:00:58;23.00;;;14.53;;
9260;SDS011;4667;42.726;23.252;2023-12-04T16:03:26;20.63;;;13.33;;
9260;SDS011;4667;42.726;23.252;2023-12-04T16:05:54;29.00;;;13.83;;
9260;SDS011;4667;42.726;23.252;2023-12-04T16:08:21;28.23;;;14.13;;
9260;SDS011;4667;42.726;23.252;2023-12-04T16:10:48;24.03;;;15.00;;
9260;SDS011;4667;42.726;23.252;2023-12-04T16:13:15;23.93;;;14.50;;
9260;SDS011;4667;42.726;23.252;2023-12-04T16:15:42;20.23;;;14.40;;
9260;SDS011;4667;42.726;23.252;2023-12-04T16:18:12;24.87;;;14.63;;
9260;SDS011;4667;42.726;23.252;2023-12-04T16:20:40;22.97;;;14.97;;
9260;SDS011;4667;42.726;23.252;2023-12-04T16:23:08;27.93;;;14.30;;
9260;SDS011;4667;42.726;23.252;2023-12-04T16:25:35;25.67;;;15.13;;
9260;SDS011;4667;42.726;23.252;2023-12-04T16:28:02;25.57;;;15.27;;
9260;SDS011;4667;42.726;23.252;2023-12-04T16:30:32;33.20;;;16.03;;
9260;SDS011;4667;42.726;23.252;2023-12-04T16:32:59;26.43;;;15.20;;
9260;SDS011;4667;42.726;23.252;2023-12-04T16:35:25;34.37;;;17.80;;
9260;SDS011;4667;42.726;23.252;2023-12-04T16:37:53;27.67;;;17.43;;
9260;SDS011;4667;42.726;23.252;2023-12-04T16:40:22;23.77;;;15.67;;
9260;SDS011;4667;42.726;23.252;2023-12-04T16:42:49;31.53;;;16.80;;
9260;SDS011;4667;42.726;23.252;2023-12-04T16:45:17;31.57;;;16.90;;
9260;SDS011;4667;42.726;23.252;2023-12-04T16:47:43;29.37;;;18.57;;
9260;SDS011;4667;42.726;23.252;2023-12-04T16:50:10;35.27;;;19.00;;
9260;SDS011;4667;42.726;23.252;2023-12-04T16:52:39;45.57;;;23.80;;
9260;SDS011;4667;42.726;23.252;2023-12-04T16:55:06;41.87;;;22.30;;
9260;SDS011;4667;42.726;23.252;2023-12-04T16:57:35;47.20;;;24.97;;
9260;SDS011;4667;42.726;23.252;2023-12-04T17:00:06;59.93;;;28.90;;
9260;SDS011;4667;42.726;23.252;2023-12-04T17:02:39;53.27;;;28.13;;
9260;SDS011;4667;42.726;23.252;2023-12-04T17:05:06;62.60;;;32.10;;
9260;SDS011;4667;42.726;23.252;2023-12-04T17:07:33;60.80;;;32.40;;
9260;SDS011;4667;42.726;23.252;2023-12-04T17:10:00;73.47;;;34.17;;